createdAt,value
2019-03-15T00:00:06.746Z,14.80
2019-03-15T00:02:36.397Z,14.70
2019-03-15T00:05:05.689Z,14.70
2019-03-15T00:07:35.009Z,14.70
2019-03-15T00:10:06.396Z,14.80
2019-03-15T00:12:35.542Z,14.80
2019-03-15T00:15:05.058Z,14.90
2019-03-15T00:17:34.635Z,14.80
2019-03-15T00:20:03.742Z,14.80
2019-03-15T00:22:32.962Z,14.80
2019-03-15T00:25:03.072Z,14.80
2019-03-15T00:27:32.453Z,14.80
2019-03-15T00:30:01.506Z,14.80
2019-03-15T00:32:30.689Z,14.80
2019-03-15T00:34:59.801Z,14.80
2019-03-15T00:37:28.862Z,14.70
2019-03-15T00:39:57.951Z,14.70
2019-03-15T00:42:27.015Z,14.70
2019-03-15T00:44:56.046Z,14.70
2019-03-15T00:47:25.519Z,14.70
2019-03-15T00:49:54.605Z,14.70
2019-03-15T00:52:23.782Z,14.80
2019-03-15T00:54:53.016Z,14.70
2019-03-15T00:57:22.413Z,14.70
2019-03-15T00:59:51.481Z,14.70
2019-03-15T01:02:21.005Z,14.70
2019-03-15T01:04:50.033Z,14.70
2019-03-15T01:07:19.122Z,14.80
2019-03-15T01:09:48.928Z,14.70
2019-03-15T01:12:17.997Z,14.70
2019-03-15T01:14:46.974Z,14.70
2019-03-15T01:17:16.115Z,14.70
2019-03-15T01:19:45.210Z,14.60
2019-03-15T01:22:14.275Z,14.60
2019-03-15T01:24:43.437Z,14.70
2019-03-15T01:27:12.963Z,14.80
2019-03-15T01:29:42.781Z,14.80
2019-03-15T01:32:12.029Z,14.70
2019-03-15T01:34:41.379Z,14.70
2019-03-15T01:37:10.467Z,14.70
2019-03-15T01:39:39.606Z,14.70
2019-03-15T01:42:08.771Z,14.70
2019-03-15T01:44:37.938Z,14.70
2019-03-15T01:47:07.301Z,14.80
2019-03-15T01:49:36.355Z,14.70
2019-03-15T01:52:05.592Z,14.70
2019-03-15T01:54:34.696Z,14.70
2019-03-15T01:57:03.838Z,14.60
2019-03-15T01:59:32.973Z,14.70
2019-03-15T02:02:02.138Z,14.80
2019-03-15T02:04:31.787Z,14.80
2019-03-15T02:07:01.416Z,14.80
2019-03-15T02:09:30.563Z,14.80
2019-03-15T02:11:59.630Z,14.70
2019-03-15T02:14:28.806Z,14.70
2019-03-15T02:16:58.250Z,14.80
2019-03-15T02:19:27.227Z,14.80
2019-03-15T02:21:56.376Z,14.80
2019-03-15T02:24:26.145Z,14.80
2019-03-15T02:26:55.625Z,14.80
2019-03-15T02:29:25.188Z,14.70
2019-03-15T02:31:54.654Z,14.70
2019-03-15T02:34:23.737Z,14.70
2019-03-15T02:36:52.839Z,14.60
2019-03-15T02:39:22.011Z,14.70
2019-03-15T02:41:51.025Z,14.70
2019-03-15T02:44:20.082Z,14.70
2019-03-15T02:46:49.850Z,14.80
2019-03-15T02:49:18.971Z,14.80
2019-03-15T02:51:48.094Z,14.80
2019-03-15T02:54:17.298Z,14.70
2019-03-15T02:56:46.493Z,14.70
2019-03-15T02:59:15.622Z,14.80
2019-03-15T03:01:45.412Z,14.80
2019-03-15T03:04:14.508Z,14.80
2019-03-15T03:06:43.575Z,14.80
2019-03-15T03:09:32.238Z,14.70
2019-03-15T03:12:01.744Z,14.70
2019-03-15T03:14:31.208Z,14.60
2019-03-15T03:17:00.572Z,14.70
2019-03-15T03:19:29.654Z,14.70
2019-03-15T03:21:58.775Z,14.80
2019-03-15T03:24:27.876Z,14.70
2019-03-15T03:26:56.940Z,14.80
2019-03-15T03:29:26.103Z,14.70
2019-03-15T03:31:56.601Z,14.70
2019-03-15T03:34:25.606Z,14.70
2019-03-15T03:36:57.778Z,14.70
2019-03-15T03:39:25.600Z,14.80
2019-03-15T03:41:55.041Z,14.80
2019-03-15T03:44:24.669Z,14.80
2019-03-15T03:46:54.527Z,14.70
2019-03-15T03:49:23.612Z,14.70
2019-03-15T03:51:52.699Z,14.80
2019-03-15T03:54:21.807Z,14.80
2019-03-15T03:56:50.931Z,14.90
2019-03-15T03:59:20.009Z,14.90
2019-03-15T04:01:49.672Z,14.90
2019-03-15T04:04:18.665Z,14.80
2019-03-15T04:06:47.748Z,14.90
2019-03-15T04:09:17.641Z,14.80
2019-03-15T04:11:55.501Z,14.90
2019-03-15T04:14:18.001Z,14.90
2019-03-15T04:16:47.174Z,14.90
2019-03-15T04:19:16.290Z,14.80
2019-03-15T04:21:45.358Z,14.80
2019-03-15T04:24:14.820Z,14.80
2019-03-15T04:26:44.007Z,14.90
2019-03-15T04:29:13.274Z,15.00
2019-03-15T04:31:42.814Z,15.00
2019-03-15T04:34:11.995Z,15.00
2019-03-15T04:36:41.538Z,15.00
2019-03-15T04:39:13.804Z,14.90
2019-03-15T04:41:41.497Z,14.90
2019-03-15T04:44:10.589Z,14.90
2019-03-15T04:46:41.271Z,15.00
2019-03-15T04:49:10.486Z,15.00
2019-03-15T04:51:39.981Z,14.90
2019-03-15T04:54:09.103Z,14.90
2019-03-15T04:56:38.181Z,14.90
2019-03-15T04:59:07.318Z,14.90
2019-03-15T05:01:37.178Z,14.80
2019-03-15T05:04:06.276Z,14.80
2019-03-15T05:06:35.443Z,14.80
2019-03-15T05:09:06.722Z,14.70
2019-03-15T05:11:36.218Z,14.70
2019-03-15T05:14:05.665Z,14.70
2019-03-15T05:16:35.253Z,14.80
2019-03-15T05:19:04.334Z,14.90
2019-03-15T05:21:33.424Z,14.90
2019-03-15T05:24:02.796Z,14.90
2019-03-15T05:26:32.014Z,14.90
2019-03-15T05:29:01.099Z,14.90
2019-03-15T05:31:30.786Z,14.90
2019-03-15T05:33:59.891Z,15.00
2019-03-15T05:36:29.061Z,15.00
2019-03-15T05:38:58.388Z,15.00
2019-03-15T05:41:27.514Z,14.90
2019-03-15T05:43:56.725Z,14.90
2019-03-15T05:46:26.521Z,14.90
2019-03-15T05:48:55.605Z,14.90
2019-03-15T05:51:24.679Z,14.80
2019-03-15T05:53:53.800Z,14.80
2019-03-15T05:56:22.899Z,14.80
2019-03-15T05:58:52.112Z,14.90
2019-03-15T06:01:21.707Z,15.00
2019-03-15T06:03:50.951Z,15.00
2019-03-15T06:06:19.953Z,15.00
2019-03-15T06:08:49.101Z,15.00
2019-03-15T06:11:18.190Z,15.00
2019-03-15T06:13:47.743Z,15.00
2019-03-15T06:16:17.493Z,15.00
2019-03-15T06:18:46.637Z,15.00
2019-03-15T06:21:15.721Z,15.00
2019-03-15T06:23:44.806Z,15.00
2019-03-15T06:26:14.084Z,15.00
2019-03-15T06:28:43.161Z,14.90
2019-03-15T06:31:12.677Z,14.90
2019-03-15T06:33:41.891Z,14.90
2019-03-15T06:36:10.964Z,14.80
2019-03-15T06:38:40.108Z,14.80
2019-03-15T06:41:09.298Z,14.90
2019-03-15T06:43:38.384Z,15.00
2019-03-15T06:46:08.079Z,15.00
2019-03-15T06:48:37.204Z,15.00
2019-03-15T06:51:09.119Z,15.00
2019-03-15T06:53:37.655Z,15.00
2019-03-15T06:56:06.847Z,15.10
2019-03-15T06:58:35.914Z,15.10
2019-03-15T07:01:05.800Z,15.10
2019-03-15T07:03:34.932Z,15.10
2019-03-15T07:06:04.127Z,15.10
2019-03-15T07:08:34.024Z,15.10
2019-03-15T07:11:03.095Z,15.00
2019-03-15T07:13:32.508Z,14.90
2019-03-15T07:16:02.507Z,14.90
2019-03-15T07:18:31.571Z,14.90
2019-03-15T07:21:00.703Z,14.90
2019-03-15T07:23:29.789Z,14.90
2019-03-15T07:25:58.978Z,15.00
2019-03-15T07:28:28.471Z,15.00
2019-03-15T07:30:58.003Z,15.10
2019-03-15T07:33:27.106Z,15.10
2019-03-15T07:35:56.204Z,15.10
2019-03-15T07:38:25.345Z,15.10
2019-03-15T07:40:54.513Z,15.10
2019-03-15T07:43:23.571Z,15.10
2019-03-15T07:45:54.123Z,15.10
2019-03-15T07:48:24.367Z,15.10
2019-03-15T07:50:54.013Z,15.10
2019-03-15T07:53:23.834Z,15.10
2019-03-15T07:55:53.296Z,15.10
2019-03-15T07:58:22.447Z,15.00
2019-03-15T08:00:52.341Z,15.00
2019-03-15T08:03:21.413Z,15.00
2019-03-15T08:05:50.671Z,15.00
2019-03-15T08:08:19.765Z,15.00
2019-03-15T08:10:48.842Z,15.00
2019-03-15T08:13:18.349Z,15.00
2019-03-15T08:15:48.255Z,15.10
2019-03-15T08:18:17.342Z,15.20
2019-03-15T08:20:46.463Z,15.20
2019-03-15T08:23:15.581Z,15.30
2019-03-15T08:25:44.693Z,15.30
2019-03-15T08:28:13.857Z,15.30
2019-03-15T08:30:43.952Z,15.30
2019-03-15T08:33:13.091Z,15.30
2019-03-15T08:35:42.236Z,15.30
2019-03-15T08:38:11.309Z,15.30
2019-03-15T08:40:40.359Z,15.40
2019-03-15T08:43:09.467Z,15.40
2019-03-15T08:45:39.220Z,15.30
2019-03-15T08:48:08.293Z,15.30
2019-03-15T08:50:37.387Z,15.30
2019-03-15T08:53:06.751Z,15.30
2019-03-15T08:55:35.823Z,15.30
2019-03-15T08:58:13.885Z,15.30
2019-03-15T09:00:35.977Z,15.30
2019-03-15T09:03:05.083Z,15.30
2019-03-15T09:05:34.142Z,15.30
2019-03-15T09:08:03.327Z,15.40
2019-03-15T09:10:32.401Z,15.40
2019-03-15T09:13:01.525Z,15.50
2019-03-15T09:15:31.078Z,15.50
2019-03-15T09:18:01.107Z,15.50
2019-03-15T09:20:30.774Z,15.60
2019-03-15T09:23:00.115Z,15.60
2019-03-15T09:25:29.151Z,15.60
2019-03-15T09:27:58.139Z,15.60
2019-03-15T09:30:27.725Z,15.50
2019-03-15T09:32:56.798Z,15.50
2019-03-15T09:35:25.847Z,15.60
2019-03-15T09:37:54.926Z,15.70
2019-03-15T09:40:25.661Z,15.80
2019-03-15T09:42:54.768Z,15.90
2019-03-15T09:45:24.788Z,16.00
2019-03-15T09:47:54.050Z,16.10
2019-03-15T09:50:33.916Z,16.20
2019-03-15T09:52:55.117Z,16.30
2019-03-15T09:55:32.829Z,16.30
2019-03-15T09:57:54.939Z,16.30
2019-03-15T10:00:24.451Z,16.30
2019-03-15T10:02:55.862Z,16.40
2019-03-15T10:05:24.163Z,16.40
2019-03-15T10:07:53.272Z,16.50
2019-03-15T10:10:22.326Z,15.70
2019-03-15T10:13:04.641Z,16.50
2019-03-15T10:15:22.481Z,16.50
2019-03-15T10:17:52.094Z,16.60
2019-03-15T10:20:21.072Z,16.60
2019-03-15T10:23:04.743Z,16.60
2019-03-15T10:25:20.875Z,16.60
2019-03-15T10:27:49.934Z,16.70
2019-03-15T10:30:19.194Z,16.70
2019-03-15T10:32:48.167Z,16.70
2019-03-15T10:35:17.211Z,16.70
2019-03-15T10:37:46.274Z,16.70
2019-03-15T10:40:16.981Z,16.60
2019-03-15T10:42:46.064Z,16.50
2019-03-15T10:45:16.239Z,16.50
2019-03-15T10:47:45.290Z,16.50
2019-03-15T10:50:15.139Z,16.50
2019-03-15T10:52:44.712Z,16.50
2019-03-15T10:55:13.674Z,16.50
2019-03-15T10:57:42.717Z,16.60
2019-03-15T11:00:14.728Z,16.60
2019-03-15T11:02:43.775Z,16.60
2019-03-15T11:05:14.387Z,16.60
2019-03-15T11:07:43.522Z,16.70
2019-03-15T11:10:12.523Z,16.70
2019-03-15T11:12:41.563Z,16.60
2019-03-15T11:15:10.897Z,16.60
2019-03-15T11:17:40.370Z,16.60
2019-03-15T11:20:09.865Z,16.60
2019-03-15T11:22:39.824Z,16.60
2019-03-15T11:25:09.487Z,16.60
2019-03-15T11:27:38.990Z,16.60
2019-03-15T11:30:08.728Z,16.60
2019-03-15T11:32:37.684Z,16.50
2019-03-15T11:35:07.243Z,16.60
2019-03-15T11:37:36.301Z,16.60
2019-03-15T11:40:06.206Z,16.60
2019-03-15T11:42:35.170Z,16.60
2019-03-15T11:45:04.929Z,16.70
2019-03-15T11:47:50.143Z,16.70
2019-03-15T11:50:05.282Z,16.70
2019-03-15T11:52:34.654Z,16.90
2019-03-15T11:55:03.719Z,17.00
2019-03-15T11:57:32.707Z,17.10
2019-03-15T12:00:02.298Z,17.10
2019-03-15T12:02:31.342Z,17.10
2019-03-15T12:05:00.417Z,17.30
2019-03-15T12:07:29.539Z,17.30
2019-03-15T12:09:58.598Z,17.40
2019-03-15T12:12:27.638Z,17.50
2019-03-15T12:14:57.139Z,17.50
2019-03-15T12:17:26.373Z,17.50
2019-03-15T12:19:55.742Z,17.50
2019-03-15T12:22:24.824Z,17.50
2019-03-15T12:24:53.794Z,17.50
2019-03-15T12:27:22.759Z,17.40
2019-03-15T12:29:52.307Z,17.40
2019-03-15T12:32:23.789Z,17.40
2019-03-15T12:34:52.127Z,17.30
2019-03-15T12:37:21.187Z,17.30
2019-03-15T12:39:50.244Z,17.20
2019-03-15T12:42:19.238Z,17.10
2019-03-15T12:44:48.727Z,17.10
2019-03-15T12:47:17.783Z,17.00
2019-03-15T12:49:46.834Z,16.90
2019-03-15T12:52:16.316Z,16.90
2019-03-15T12:54:45.289Z,16.90
2019-03-15T12:57:14.382Z,16.80
2019-03-15T12:59:44.260Z,16.80
2019-03-15T13:02:13.506Z,16.70
2019-03-15T13:04:42.563Z,16.70
2019-03-15T13:07:11.642Z,16.60
2019-03-15T13:09:40.699Z,16.60
2019-03-15T13:12:09.712Z,16.50
2019-03-15T13:14:39.719Z,16.50
2019-03-15T13:17:09.168Z,16.60
2019-03-15T13:19:38.635Z,16.70
2019-03-15T13:22:07.739Z,16.60
2019-03-15T13:24:36.791Z,16.50
2019-03-15T13:27:07.815Z,16.40
2019-03-15T13:29:37.642Z,16.40
2019-03-15T13:32:06.712Z,16.40
2019-03-15T13:34:35.684Z,16.30
2019-03-15T13:37:04.876Z,16.30
2019-03-15T13:39:34.226Z,16.30
2019-03-15T13:42:03.282Z,16.40
2019-03-15T13:44:32.831Z,16.30
2019-03-15T13:47:01.884Z,16.40
2019-03-15T13:49:30.948Z,16.30
2019-03-15T13:52:00.418Z,16.20
2019-03-15T13:54:29.386Z,16.30
2019-03-15T13:56:58.430Z,16.20
2019-03-15T13:59:27.497Z,16.20
2019-03-15T14:01:56.571Z,16.20
2019-03-15T14:04:25.615Z,16.30
2019-03-15T14:06:55.609Z,16.20
2019-03-15T14:09:24.662Z,16.10
2019-03-15T14:11:53.900Z,16.10
2019-03-15T14:14:23.464Z,16.00
2019-03-15T14:16:52.494Z,16.00
2019-03-15T14:19:21.947Z,16.00
2019-03-15T14:21:51.401Z,15.90
2019-03-15T14:24:22.861Z,15.90
2019-03-15T14:26:51.217Z,15.90
2019-03-15T14:29:20.786Z,15.90
2019-03-15T14:31:49.752Z,15.90
2019-03-15T14:34:18.814Z,15.80
2019-03-15T14:36:48.126Z,15.80
2019-03-15T14:39:17.541Z,15.80
2019-03-15T14:41:46.721Z,15.90
2019-03-15T14:44:18.251Z,15.80
2019-03-15T14:46:46.825Z,15.80
2019-03-15T14:49:15.910Z,15.80
2019-03-15T14:51:45.751Z,15.80
2019-03-15T14:54:14.806Z,15.70
2019-03-15T14:56:43.871Z,15.70
2019-03-15T14:59:13.315Z,15.70
2019-03-15T15:01:42.422Z,15.70
2019-03-15T15:04:11.495Z,15.70
2019-03-15T15:06:40.927Z,15.60
2019-03-15T15:09:09.989Z,15.70
2019-03-15T15:11:39.216Z,15.60
2019-03-15T15:14:08.497Z,15.60
2019-03-15T15:16:37.546Z,15.60
2019-03-15T15:19:06.912Z,15.60
2019-03-15T15:21:37.342Z,15.70
2019-03-15T15:24:06.426Z,15.70
2019-03-15T15:26:35.493Z,15.70
2019-03-15T15:29:05.236Z,15.70
2019-03-15T15:31:34.370Z,15.70
2019-03-15T15:34:03.436Z,15.70
2019-03-15T15:36:32.519Z,15.70
2019-03-15T15:39:01.568Z,15.70
2019-03-15T15:41:30.616Z,15.70
2019-03-15T15:43:59.694Z,15.70
2019-03-15T15:46:28.670Z,15.70
2019-03-15T15:48:57.741Z,15.80
2019-03-15T15:51:27.394Z,15.80
2019-03-15T15:53:56.448Z,15.80
2019-03-15T15:56:25.707Z,15.80
2019-03-15T15:58:54.718Z,15.70
2019-03-15T16:01:23.832Z,15.70
2019-03-15T16:03:52.926Z,15.70
2019-03-15T16:06:23.194Z,15.60
2019-03-15T16:08:52.166Z,15.60
2019-03-15T16:11:21.283Z,15.60
2019-03-15T16:13:50.810Z,15.50
2019-03-15T16:16:19.901Z,15.50
2019-03-15T16:18:49.280Z,15.50
2019-03-15T16:21:19.299Z,15.60
2019-03-15T16:23:48.569Z,15.60
2019-03-15T16:26:17.648Z,15.60
2019-03-15T16:28:46.883Z,15.70
2019-03-15T16:31:15.933Z,15.70
2019-03-15T16:33:45.099Z,15.70
2019-03-15T16:36:14.299Z,15.70
2019-03-15T16:38:43.374Z,15.70
2019-03-15T16:41:12.463Z,15.70
2019-03-15T16:43:41.749Z,15.60
2019-03-15T16:46:10.867Z,15.60
2019-03-15T16:48:40.011Z,15.60
2019-03-15T16:51:19.484Z,15.60
2019-03-15T16:53:40.511Z,15.50
2019-03-15T16:56:09.800Z,15.50
2019-03-15T16:58:45.344Z,15.50
2019-03-15T17:01:09.863Z,15.40
2019-03-15T17:03:38.839Z,15.40
2019-03-15T17:06:08.211Z,15.30
2019-03-15T17:08:37.311Z,15.30
2019-03-15T17:11:06.567Z,15.30
2019-03-15T17:13:36.388Z,15.30
2019-03-15T17:16:05.486Z,15.30
2019-03-15T17:18:34.623Z,15.30
2019-03-15T17:21:03.653Z,15.30
2019-03-15T17:23:33.503Z,15.20
2019-03-15T17:26:02.551Z,15.20
2019-03-15T17:28:31.922Z,15.20
2019-03-15T17:31:09.642Z,15.10
2019-03-15T17:33:31.865Z,15.10
2019-03-15T17:36:00.996Z,15.10
2019-03-15T17:38:30.158Z,15.10
2019-03-15T17:40:59.130Z,15.00
2019-03-15T17:43:28.379Z,15.00
2019-03-15T17:45:57.496Z,15.00
2019-03-15T17:48:26.557Z,15.00
2019-03-15T17:50:55.995Z,15.00
2019-03-15T17:53:25.148Z,15.00
2019-03-15T17:55:54.252Z,15.00
2019-03-15T17:58:25.891Z,14.90
2019-03-15T18:00:54.708Z,15.00
2019-03-15T18:03:23.816Z,14.90
2019-03-15T18:05:53.293Z,14.90
2019-03-15T18:08:22.575Z,14.90
2019-03-15T18:10:51.717Z,14.90
2019-03-15T18:13:21.471Z,14.90
2019-03-15T18:15:50.537Z,14.90
2019-03-15T18:18:19.646Z,14.90
2019-03-15T18:20:48.929Z,14.80
2019-03-15T18:23:18.876Z,14.80
2019-03-15T18:25:48.052Z,14.80
2019-03-15T18:28:18.037Z,14.80
2019-03-15T18:30:47.186Z,14.80
2019-03-15T18:33:16.466Z,14.80
2019-03-15T18:35:45.610Z,14.80
2019-03-15T18:38:14.759Z,14.70
2019-03-15T18:40:43.867Z,14.70
2019-03-15T18:43:13.245Z,14.70
2019-03-15T18:45:42.346Z,14.70
2019-03-15T18:48:11.401Z,14.70
2019-03-15T18:50:41.226Z,14.70
2019-03-15T18:53:10.303Z,14.70
2019-03-15T18:55:39.488Z,14.70
2019-03-15T18:58:08.606Z,14.60
2019-03-15T19:00:37.603Z,14.60
2019-03-15T19:03:06.691Z,14.60
2019-03-15T19:05:36.461Z,14.60
2019-03-15T19:08:05.720Z,14.60
2019-03-15T19:10:34.802Z,14.60
2019-03-15T19:13:04.623Z,14.60
2019-03-15T19:15:33.672Z,14.50
2019-03-15T19:18:02.766Z,14.50
2019-03-15T19:20:31.877Z,14.50
2019-03-15T19:23:01.294Z,14.50
2019-03-15T19:25:30.759Z,14.50
2019-03-15T19:28:01.333Z,14.50
2019-03-15T19:30:30.313Z,14.50
2019-03-15T19:32:59.283Z,14.50
2019-03-15T19:35:28.383Z,14.50
2019-03-15T19:37:57.487Z,14.50
2019-03-15T19:40:26.563Z,14.40
2019-03-15T19:42:55.653Z,14.40
2019-03-15T19:45:24.631Z,14.40
2019-03-15T19:47:53.692Z,14.40
2019-03-15T19:50:23.531Z,14.40
2019-03-15T19:52:52.689Z,14.40
2019-03-15T19:55:21.737Z,14.50
2019-03-15T19:57:50.850Z,14.60
2019-03-15T20:00:20.010Z,14.70
2019-03-15T20:02:49.144Z,14.70
2019-03-15T20:05:18.672Z,14.70
2019-03-15T20:07:47.909Z,14.70
2019-03-15T20:10:17.469Z,14.60
2019-03-15T20:12:47.494Z,14.70
2019-03-15T20:15:16.515Z,14.60
2019-03-15T20:17:45.567Z,14.60
2019-03-15T20:20:15.698Z,14.50
2019-03-15T20:22:44.921Z,14.60
2019-03-15T20:25:14.609Z,14.50
2019-03-15T20:27:44.202Z,14.60
2019-03-15T20:30:21.053Z,14.70
2019-03-15T20:32:45.873Z,14.70
2019-03-15T20:35:14.956Z,14.80
2019-03-15T20:37:44.060Z,14.70
2019-03-15T20:40:13.150Z,14.80
2019-03-15T20:42:42.263Z,14.80
2019-03-15T20:45:12.562Z,14.90
2019-03-15T20:47:41.629Z,14.80
2019-03-15T20:50:12.515Z,14.80
2019-03-15T20:52:41.604Z,14.80
2019-03-15T20:55:10.589Z,14.70
2019-03-15T20:57:39.674Z,14.70
2019-03-15T21:00:10.501Z,14.70
2019-03-15T21:02:39.517Z,14.70
2019-03-15T21:05:09.826Z,14.70
2019-03-15T21:07:38.822Z,14.80
2019-03-15T21:10:08.934Z,14.80
2019-03-15T21:12:38.337Z,14.80
2019-03-15T21:15:07.551Z,14.80
2019-03-15T21:17:36.690Z,14.90
2019-03-15T21:20:06.590Z,14.90
2019-03-15T21:22:36.258Z,14.90
2019-03-15T21:25:06.252Z,14.90
2019-03-15T21:27:35.510Z,14.90
2019-03-15T21:30:06.444Z,14.90
2019-03-15T21:32:35.554Z,14.90
2019-03-15T21:35:04.947Z,14.80
2019-03-15T21:37:34.021Z,14.80
2019-03-15T21:40:03.065Z,14.80
2019-03-15T21:42:32.263Z,14.70
2019-03-15T21:45:01.378Z,14.70
2019-03-15T21:47:30.431Z,14.70
2019-03-15T21:49:59.840Z,14.60
2019-03-15T21:52:28.965Z,14.60
2019-03-15T21:54:58.063Z,14.60
2019-03-15T21:57:27.183Z,14.60
2019-03-15T21:59:56.242Z,14.70
2019-03-15T22:02:25.355Z,14.80
2019-03-15T22:04:55.293Z,14.80
2019-03-15T22:07:24.579Z,14.90
2019-03-15T22:09:55.291Z,14.90
2019-03-15T22:12:25.003Z,14.90
2019-03-15T22:14:54.136Z,14.90
2019-03-15T22:17:23.256Z,14.90
2019-03-15T22:19:53.083Z,15.00
2019-03-15T22:22:22.592Z,15.00
2019-03-15T22:24:52.179Z,14.90
2019-03-15T22:27:21.746Z,14.90
2019-03-15T22:29:53.803Z,14.90
2019-03-15T22:32:21.531Z,14.90
2019-03-15T22:34:50.606Z,14.80
2019-03-15T22:37:19.623Z,14.80
2019-03-15T22:39:48.711Z,14.70
2019-03-15T22:42:17.792Z,14.70
2019-03-15T22:44:46.757Z,14.70
2019-03-15T22:47:15.894Z,14.70
2019-03-15T22:49:45.439Z,14.70
2019-03-15T22:52:14.464Z,14.70
2019-03-15T22:54:43.565Z,14.80
2019-03-15T22:57:12.820Z,14.80
2019-03-15T22:59:41.952Z,14.90
2019-03-15T23:02:11.003Z,14.90
2019-03-15T23:04:41.610Z,14.90
2019-03-15T23:07:10.804Z,14.90
2019-03-15T23:09:39.951Z,15.00
2019-03-15T23:12:09.455Z,15.00
2019-03-15T23:14:38.555Z,15.00
2019-03-15T23:17:07.815Z,15.00
2019-03-15T23:19:37.004Z,15.00
2019-03-15T23:22:06.058Z,15.00
2019-03-15T23:24:35.587Z,15.00
2019-03-15T23:27:06.159Z,15.00
2019-03-15T23:29:35.264Z,14.90
2019-03-15T23:32:04.304Z,14.90
2019-03-15T23:34:33.417Z,14.90
2019-03-15T23:37:02.571Z,14.80
2019-03-15T23:39:31.615Z,14.80
2019-03-15T23:42:00.790Z,14.80
2019-03-15T23:44:29.856Z,14.70
2019-03-15T23:46:59.123Z,14.70
2019-03-15T23:49:29.021Z,14.80
2019-03-15T23:51:58.132Z,14.70
2019-03-15T23:54:27.156Z,14.70
2019-03-15T23:56:56.287Z,14.70
2019-03-15T23:59:25.379Z,14.70
